Time;durP1;ratioP1;P1;durP2;ratioP2;P2;SDS_P1;SDS_P2;PMS_P1;PMS_P2;Temp;Humidity;BMP_temperature;BMP_pressure;BME280_temperature;BME280_humidity;BME280_pressure;Samples;Min_cycle;Max_cycle;Signal;HPM_P1;HPM_P2
2022/11/10 00:01:52;;;;;;;1999.90;999.90;;;;;;;11.32;100.00;93998.69;5001023;28;20231;-68
2022/11/10 00:04:18;;;;;;;1999.90;999.90;;;;;;;11.30;100.00;94008.53;5000821;28;20191;-67
2022/11/10 00:06:46;;;;;;;1999.90;999.90;;;;;;;11.31;100.00;94007.31;5000714;28;20172;-61
2022/11/10 00:09:11;;;;;;;1999.90;999.90;;;;;;;11.31;100.00;94001.88;5000845;28;20178;-66
2022/11/10 00:11:37;;;;;;;1999.90;999.90;;;;;;;11.27;100.00;94004.72;5000600;28;20268;-65
2022/11/10 00:17:03;;;;;;;1999.90;999.90;;;;;;;11.28;100.00;94008.19;5018160;28;20232;-66
2022/11/10 00:19:29;;;;;;;1999.90;999.90;;;;;;;11.27;100.00;94003.94;5018435;28;20167;-66
2022/11/10 00:21:55;;;;;;;1999.90;999.90;;;;;;;11.29;100.00;94012.47;5000719;28;20206;-66
2022/11/10 00:24:21;;;;;;;1999.90;999.90;;;;;;;11.27;100.00;94010.19;5000434;28;20299;-66
2022/11/10 00:26:47;;;;;;;1999.90;999.90;;;;;;;11.29;100.00;94007.03;5000484;28;20587;-61
2022/11/10 00:29:12;;;;;;;1999.90;999.90;;;;;;;11.28;100.00;94008.19;5000218;28;20697;-66
2022/11/10 00:31:38;;;;;;;1999.90;999.90;;;;;;;11.29;100.00;94009.75;5000487;28;20187;-67
2022/11/10 00:34:04;;;;;;;1999.90;999.90;;;;;;;11.26;100.00;94014.09;5000874;28;20591;-66
2022/11/10 00:36:29;;;;;;;1999.90;999.90;;;;;;;11.27;100.00;94009.41;5001093;28;20172;-66
2022/11/10 00:38:55;;;;;;;1999.90;999.90;;;;;;;11.26;100.00;94013.34;5000940;28;20180;-66
2022/11/10 00:41:21;;;;;;;1999.90;999.90;;;;;;;11.24;100.00;94013.03;5000171;28;20204;-66
2022/11/10 00:43:47;;;;;;;1999.90;999.90;;;;;;;11.24;100.00;94016.53;5000205;28;20658;-65
2022/11/10 00:46:13;;;;;;;1999.90;999.90;;;;;;;11.24;100.00;94032.16;5000423;28;20176;-60
2022/11/10 00:48:38;;;;;;;1999.90;999.90;;;;;;;11.25;100.00;94031.72;4999939;28;20181;-60
2022/11/10 00:51:03;;;;;;;1999.90;999.90;;;;;;;11.26;100.00;94029.75;4999856;28;20180;-59
2022/11/10 00:53:29;;;;;;;1999.90;999.90;;;;;;;11.26;100.00;94025.03;4999525;28;20173;-60
2022/11/10 00:55:54;;;;;;;1999.90;999.90;;;;;;;11.24;100.00;94032.16;5000023;28;20282;-61
2022/11/10 00:58:20;;;;;;;1999.90;999.90;;;;;;;11.23;100.00;94030.63;4999644;28;20177;-60
2022/11/10 01:00:45;;;;;;;1999.90;999.90;;;;;;;11.23;100.00;94027.91;4998882;28;20172;-60
2022/11/10 01:03:15;;;;;;;1999.90;999.90;;;;;;;11.23;100.00;94030.63;4999221;28;20263;-64
2022/11/10 01:05:41;;;;;;;1999.90;999.90;;;;;;;11.20;100.00;94034.25;4999766;28;20180;-61
2022/11/10 01:08:07;;;;;;;1999.90;999.90;;;;;;;11.19;100.00;94025.28;4999423;28;20175;-61
2022/11/10 01:10:32;;;;;;;1999.90;999.90;;;;;;;11.18;100.00;94017.53;5000009;28;20176;-62
2022/11/10 01:12:58;;;;;;;1999.90;999.90;;;;;;;11.17;100.00;94005.84;4999398;28;20275;-61
2022/11/10 01:15:23;;;;;;;1999.90;999.90;;;;;;;11.17;100.00;94016.00;4999948;28;20236;-64
2022/11/10 01:17:49;;;;;;;1999.90;999.90;;;;;;;11.15;100.00;94010.22;4999715;28;20182;-61
2022/11/10 01:20:15;;;;;;;1999.90;999.90;;;;;;;11.15;100.00;94015.69;4999496;28;20222;-67
2022/11/10 01:22:40;;;;;;;1999.90;999.90;;;;;;;11.14;100.00;94005.97;4999239;28;20267;-66
2022/11/10 01:25:07;;;;;;;1999.90;999.90;;;;;;;11.15;100.00;94007.47;4999111;28;20227;-66
2022/11/10 01:27:32;;;;;;;1999.90;999.90;;;;;;;11.15;100.00;94007.47;4998979;28;20227;-65
2022/11/10 01:29:57;;;;;;;1999.90;999.90;;;;;;;11.15;100.00;93996.56;4998921;28;20183;-66
2022/11/10 01:32:23;;;;;;;1999.90;999.90;;;;;;;11.16;100.00;94003.53;4999291;28;20263;-65
2022/11/10 01:34:48;;;;;;;1999.90;999.90;;;;;;;11.15;100.00;94008.22;4998871;28;20199;-65
2022/11/10 01:37:13;;;;;;;1999.90;999.90;;;;;;;11.16;100.00;93998.06;4999077;28;20341;-65
2022/11/10 01:39:39;;;;;;;1999.90;999.90;;;;;;;11.15;100.00;93996.56;4999669;28;20201;-60
2022/11/10 01:42:04;;;;;;;1999.90;999.90;;;;;;;11.14;100.00;94011.44;4999241;28;20196;-61
2022/11/10 01:44:30;;;;;;;1999.90;999.90;;;;;;;11.15;100.00;94012.94;4999134;28;20173;-61
2022/11/10 01:46:55;;;;;;;1999.90;999.90;;;;;;;11.13;100.00;94018.06;4998799;28;20204;-61
2022/11/10 01:49:27;;;;;;;1999.90;999.90;;;;;;;11.12;100.00;94014.59;4999627;28;20186;-60
2022/11/10 01:52:01;;;;;;;1999.90;999.90;;;;;;;11.11;100.00;94013.06;4998693;28;20180;-61
2022/11/10 01:54:32;;;;;;;1999.90;999.90;;;;;;;11.13;100.00;94009.88;4998737;28;20287;-60
2022/11/10 01:57:04;;;;;;;1999.90;999.90;;;;;;;11.13;100.00;93996.22;4999191;28;20271;-60
2022/11/10 01:59:34;;;;;;;1999.90;999.90;;;;;;;11.12;100.00;93992.75;4999294;28;20258;-60
2022/11/10 02:02:09;;;;;;;1999.90;999.90;;;;;;;11.12;100.00;93986.50;4999089;28;20199;-61
2022/11/10 02:04:36;;;;;;;1999.90;999.90;;;;;;;11.13;100.00;93988.78;4998246;28;20203;-61
2022/11/10 02:07:01;;;;;;;1999.90;999.90;;;;;;;11.12;100.00;94000.94;4998820;28;20188;-62
2022/11/10 02:09:26;;;;;;;1999.90;999.90;;;;;;;11.10;100.00;93997.09;4998944;28;20176;-61
2022/11/10 02:11:54;;;;;;;1999.90;999.90;;;;;;;11.13;100.00;93998.94;4997805;28;20580;-61
2022/11/10 02:14:19;;;;;;;1999.90;999.90;;;;;;;11.12;100.00;94002.91;4998303;28;20687;-60
2022/11/10 02:16:45;;;;;;;1999.90;999.90;;;;;;;11.12;100.00;94000.94;4997953;28;20173;-68
2022/11/10 02:19:14;;;;;;;1999.90;999.90;;;;;;;11.13;100.00;94002.47;4998221;28;20238;-64
2022/11/10 02:21:40;;;;;;;1999.90;999.90;;;;;;;11.14;100.00;93997.78;4998062;28;20221;-64
2022/11/10 02:24:07;;;;;;;1999.90;999.90;;;;;;;11.12;100.00;93994.69;4997989;28;20654;-64
2022/11/10 02:26:34;;;;;;;1999.90;999.90;;;;;;;11.12;100.00;93991.97;4997805;28;20223;-64
2022/11/10 02:29:00;;;;;;;1999.90;999.90;;;;;;;11.11;100.00;93990.44;4998537;28;20274;-65
2022/11/10 02:31:25;;;;;;;1999.90;999.90;;;;;;;11.13;100.00;93993.50;4997842;28;20205;-65
2022/11/10 02:33:50;;;;;;;1999.90;999.90;;;;;;;11.13;100.00;93983.34;4998370;28;20199;-65
2022/11/10 02:36:18;;;;;;;1999.90;999.90;;;;;;;11.15;100.00;93980.16;4997683;28;20203;-63
2022/11/10 02:38:43;;;;;;;1999.90;999.90;;;;;;;11.11;100.00;93990.44;4997777;28;20199;-60
2022/11/10 02:41:09;;;;;;;1999.90;999.90;;;;;;;11.09;100.00;93998.31;4997657;28;20203;-60
2022/11/10 02:43:36;;;;;;;1999.90;999.90;;;;;;;11.09;100.00;93992.84;4997545;28;20232;-60
2022/11/10 02:46:02;;;;;;;1999.90;999.90;;;;;;;11.09;100.00;93992.84;4997836;28;20260;-61
2022/11/10 02:48:27;;;;;;;1999.90;999.90;;;;;;;11.11;100.00;93995.91;4997668;28;20206;-60
2022/11/10 02:50:53;;;;;;;1999.90;999.90;;;;;;;11.11;100.00;94006.84;4997768;28;20175;-61
2022/11/10 02:53:18;;;;;;;1999.90;999.90;;;;;;;11.11;100.00;94001.38;4997856;28;20536;-65
2022/11/10 02:55:43;;;;;;;1999.90;999.90;;;;;;;11.12;100.00;93997.44;4997681;28;20236;-65
2022/11/10 02:58:09;;;;;;;1999.90;999.90;;;;;;;11.13;100.00;93999.72;4997602;28;20538;-64
2022/11/10 03:00:34;;;;;;;1999.90;999.90;;;;;;;11.15;100.00;94002.03;4997642;28;20176;-65
2022/11/10 03:03:01;;;;;;;1999.90;999.90;;;;;;;11.15;100.00;93996.56;4998251;28;20308;-65
2022/11/10 03:05:28;;;;;;;1999.90;999.90;;;;;;;11.17;100.00;93999.59;4997588;28;20206;-65
2022/11/10 03:07:55;;;;;;;1999.90;999.90;;;;;;;11.14;100.00;94008.69;4997507;28;20173;-65
2022/11/10 03:10:21;;;;;;;1999.90;999.90;;;;;;;11.05;100.00;94027.72;4998005;28;20175;-62
2022/11/10 03:12:47;;;;;;;1999.90;999.90;;;;;;;10.97;100.00;94035.38;4997390;28;20180;-63
2022/11/10 03:15:13;;;;;;;1999.90;999.90;;;;;;;10.73;100.00;94071.63;4998027;28;20176;-68
2022/11/10 03:17:38;;;;;;;1999.90;999.90;;;;;;;10.73;100.00;94101.66;4997335;28;20181;-67
2022/11/10 03:20:04;;;;;;;1999.90;999.90;;;;;;;10.65;100.00;94116.72;4996996;28;20186;-66
2022/11/10 03:22:29;;;;;;;1999.90;999.90;;;;;;;10.58;100.00;94138.75;4997284;28;20195;-69
2022/11/10 03:24:55;;;;;;;1999.90;999.90;;;;;;;10.47;100.00;94160.13;4998374;28;20328;-68
2022/11/10 03:27:20;;;;;;;1999.90;999.90;;;;;;;10.51;100.00;94171.72;4998442;28;20630;-68
2022/11/10 03:29:46;;;;;;;1999.90;999.90;;;;;;;10.48;100.00;94186.25;4998685;28;20572;-67
2022/11/10 03:32:11;;;;;;;1999.90;999.90;;;;;;;10.47;100.00;94198.34;4998053;28;20185;-59
2022/11/10 03:34:36;;;;;;;1999.90;999.90;;;;;;;10.47;100.00;94204.59;4998037;28;20180;-59
2022/11/10 03:37:02;;;;;;;1999.90;999.90;;;;;;;10.41;100.00;94211.00;4997851;28;20172;-59
2022/11/10 03:39:27;;;;;;;1999.90;999.90;;;;;;;10.36;100.00;94206.06;4997919;28;20217;-59
2022/11/10 03:41:52;;;;;;;1999.90;999.90;;;;;;;10.29;100.00;94168.03;4997898;28;20195;-59
2022/11/10 03:44:18;;;;;;;1999.90;999.90;;;;;;;10.29;100.00;94177.00;4997667;28;20183;-60
2022/11/10 03:46:43;;;;;;;1999.90;999.90;;;;;;;10.28;100.00;94186.41;4998283;28;20229;-68
2022/11/10 03:49:08;;;;;;;1999.90;999.90;;;;;;;10.26;100.00;94198.94;4997868;28;20237;-67
2022/11/10 03:51:34;;;;;;;1999.90;999.90;;;;;;;10.30;100.00;94205.06;4997428;28;20164;-61
2022/11/10 03:53:59;;;;;;;1999.90;999.90;;;;;;;10.28;100.00;94210.16;4997799;28;20263;-62
2022/11/10 03:56:24;;;;;;;1999.90;999.90;;;;;;;10.32;100.00;94210.84;4997639;28;20176;-61
2022/11/10 03:58:50;;;;;;;1999.90;999.90;;;;;;;10.32;100.00;94205.38;4997554;28;20215;-62
2022/11/10 04:01:15;;;;;;;1999.90;999.90;;;;;;;10.34;100.00;94209.22;4998174;28;20202;-61
2022/11/10 04:03:41;;;;;;;1999.90;999.90;;;;;;;10.35;100.00;94212.72;4997221;28;20625;-61
2022/11/10 04:08:59;;;;;;;1999.90;999.90;;;;;;;10.35;100.00;94218.19;4998831;28;20223;-59
2022/11/10 04:16:57;;;;;;;1999.90;999.90;;;;;;;10.42;100.00;94223.44;4998537;28;20531;-59
2022/11/10 04:19:22;;;;;;;1999.90;999.90;;;;;;;10.43;100.00;94223.03;4997310;28;20613;-59
2022/11/10 04:21:48;;;;;;;1999.90;999.90;;;;;;;10.40;100.00;94226.59;4997381;28;20235;-60
2022/11/10 04:24:14;;;;;;;1999.90;999.90;;;;;;;10.38;100.00;94228.97;4997228;28;20562;-62
2022/11/10 04:26:41;;;;;;;1999.90;999.90;;;;;;;10.36;100.00;94225.94;4997204;28;20638;-59
2022/11/10 04:29:09;;;;;;;1999.90;999.90;;;;;;;10.34;100.00;94231.03;4997561;28;20235;-63
2022/11/10 04:31:36;;;;;;;1999.90;999.90;;;;;;;10.33;100.00;94232.25;4997499;28;20231;-63
2022/11/10 04:34:04;;;;;;;1999.90;999.90;;;;;;;10.29;100.00;94234.31;4997752;28;20238;-63
2022/11/10 04:36:31;;;;;;;1999.90;999.90;;;;;;;10.29;100.00;94241.72;4996832;28;20180;-63
2022/11/10 04:38:56;;;;;;;1999.90;999.90;;;;;;;10.31;100.00;94242.06;4997491;28;20235;-63
2022/11/10 04:41:23;;;;;;;1999.90;999.90;;;;;;;10.32;100.00;94246.31;4997346;28;20204;-64
2022/11/10 04:43:49;;;;;;;1999.90;999.90;;;;;;;10.34;100.00;94249.41;4996922;28;20189;-59
2022/11/10 04:46:23;;;;;;;1999.90;999.90;;;;;;;10.36;100.00;94247.00;4996605;28;20183;-66
2022/11/10 04:48:48;;;;;;;1999.90;999.90;;;;;;;10.36;100.00;94253.22;4996473;28;20251;-66
2022/11/10 04:51:15;;;;;;;1999.90;999.90;;;;;;;10.41;100.00;94260.13;4996596;28;20276;-67
2022/11/10 04:53:40;;;;;;;1999.90;999.90;;;;;;;10.41;100.00;94254.66;4997251;28;20234;-67
2022/11/10 04:56:05;;;;;;;1999.90;999.90;;;;;;;10.41;100.00;94252.69;4996363;28;20173;-68
2022/11/10 04:58:31;;;;;;;1999.90;999.90;;;;;;;10.45;100.00;94255.34;4996122;28;20235;-68
2022/11/10 05:00:56;;;;;;;1999.90;999.90;;;;;;;10.44;100.00;94259.25;4996899;28;20176;-61
2022/11/10 05:03:22;;;;;;;1999.90;999.90;;;;;;;10.41;100.00;94246.47;4996503;28;20183;-69
2022/11/10 05:05:48;;;;;;;1999.90;999.90;;;;;;;10.37;100.00;94251.28;4996757;28;20194;-67
2022/11/10 05:08:14;;;;;;;1999.90;999.90;;;;;;;10.36;100.00;94255.16;4996374;28;20181;-66
2022/11/10 05:10:40;;;;;;;1999.90;999.90;;;;;;;10.35;100.00;94270.03;4996236;28;20180;-65
2022/11/10 05:13:06;;;;;;;1999.90;999.90;;;;;;;10.33;100.00;94261.47;4996129;28;20175;-67
2022/11/10 05:15:32;;;;;;;1999.90;999.90;;;;;;;10.32;100.00;94268.16;4996249;28;20175;-67
2022/11/10 05:17:57;;;;;;;1999.90;999.90;;;;;;;10.30;100.00;94265.09;4996256;28;20172;-67
2022/11/10 05:20:24;;;;;;;1999.90;999.90;;;;;;;10.26;100.00;94275.34;4996026;28;20181;-66
2022/11/10 05:25:40;;;;;;;1999.90;999.90;;;;;;;10.19;100.00;94291.88;5013123;28;20259;-68
2022/11/10 05:28:08;;;;;;;1999.90;999.90;;;;;;;10.19;100.00;94298.09;4999505;28;20222;-69
2022/11/10 05:30:34;;;;;;;1999.90;999.90;;;;;;;10.17;100.00;94302.44;4999685;28;20607;-68
2022/11/10 05:32:59;;;;;;;1999.90;999.90;;;;;;;10.19;100.00;94300.06;4998753;28;20542;-68
2022/11/10 05:35:25;;;;;;;1999.90;999.90;;;;;;;10.19;100.00;94305.50;4999392;28;20175;-66
2022/11/10 05:37:50;;;;;;;1999.90;999.90;;;;;;;10.21;100.00;94301.16;4999013;28;20175;-61
2022/11/10 05:40:16;;;;;;;1999.90;999.90;;;;;;;10.18;100.00;94312.91;4999078;28;20167;-66
2022/11/10 05:42:46;;;;;;;1999.90;999.90;;;;;;;10.16;100.00;94304.38;4998921;28;20191;-65
2022/11/10 05:45:12;;;;;;;1999.90;999.90;;;;;;;10.17;100.00;94310.63;4998610;28;20543;-66
2022/11/10 05:47:37;;;;;;;1999.90;999.90;;;;;;;10.17;100.00;94318.81;4999303;28;20682;-66
2022/11/10 05:50:04;;;;;;;1999.90;999.90;;;;;;;10.15;100.00;94321.94;4999445;28;20636;-66
2022/11/10 05:52:30;;;;;;;1999.90;999.90;;;;;;;10.13;100.00;94320.84;4998743;28;20199;-66
2022/11/10 05:54:55;;;;;;;1999.90;999.90;;;;;;;10.12;100.00;94324.78;4998569;28;20535;-66
2022/11/10 05:57:21;;;;;;;1999.90;999.90;;;;;;;10.10;100.00;94330.66;4998715;28;20240;-65
2022/11/10 05:59:46;;;;;;;1999.90;999.90;;;;;;;10.12;100.00;94341.16;5031874;23;20227;-60
2022/11/10 06:02:11;;;;;;;1999.90;999.90;;;;;;;10.14;100.00;94342.25;5014878;28;20196;-60
2022/11/10 06:04:37;;;;;;;1999.90;999.90;;;;;;;10.14;100.00;94343.00;5014857;28;20192;-60
2022/11/10 06:07:02;;;;;;;1999.90;999.90;;;;;;;10.17;100.00;94354.25;5014778;28;20175;-60
2022/11/10 06:09:27;;;;;;;1999.90;999.90;;;;;;;10.17;100.00;94357.00;5015357;28;20270;-60
2022/11/10 06:11:53;;;;;;;1999.90;999.90;;;;;;;10.18;100.00;94350.34;5015338;28;20168;-60
2022/11/10 06:14:18;;;;;;;1999.90;999.90;;;;;;;10.18;100.00;94361.25;5014661;28;20179;-60
2022/11/10 06:16:44;;;;;;;1999.90;999.90;;;;;;;10.18;100.00;94363.97;5015172;28;20167;-55
2022/11/10 06:19:09;;;;;;;1999.90;999.90;;;;;;;10.18;100.00;94363.97;5014463;28;20195;-62
2022/11/10 06:21:34;;;;;;;1999.90;999.90;;;;;;;10.18;100.00;94366.72;5014213;28;20201;-62
2022/11/10 06:24:00;;;;;;;1999.90;999.90;;;;;;;10.19;100.00;94379.19;5014236;28;20263;-63
2022/11/10 06:26:25;;;;;;;1999.90;999.90;;;;;;;10.19;100.00;94388.09;5014320;28;20176;-64
2022/11/10 06:28:50;;;;;;;1999.90;999.90;;;;;;;10.21;100.00;94393.13;5014587;28;20570;-65
2022/11/10 06:31:16;;;;;;;1999.90;999.90;;;;;;;10.24;100.00;94414.13;5014276;28;20614;-65
2022/11/10 06:33:41;;;;;;;1999.90;999.90;;;;;;;10.26;100.00;94419.94;5014174;28;20534;-60
2022/11/10 06:36:07;;;;;;;1999.90;999.90;;;;;;;10.26;100.00;94417.97;5014103;28;20187;-61
2022/11/10 06:38:33;;;;;;;1999.90;999.90;;;;;;;10.28;100.00;94417.53;5013945;28;20685;-60
2022/11/10 06:40:58;;;;;;;1999.90;999.90;;;;;;;10.27;100.00;94432.38;5013807;28;20176;-61
2022/11/10 06:43:24;;;;;;;1999.90;999.90;;;;;;;10.27;100.00;94426.91;5014123;28;20261;-61
2022/11/10 06:45:49;;;;;;;1999.90;999.90;;;;;;;10.31;100.00;94430.34;5014066;28;20206;-60
2022/11/10 06:48:14;;;;;;;1999.90;999.90;;;;;;;10.32;100.00;94424.47;5014091;28;20189;-60
2022/11/10 06:50:40;;;;;;;1999.90;999.90;;;;;;;10.34;100.00;94430.25;5014112;28;20184;-71
2022/11/10 06:53:06;;;;;;;1999.90;999.90;;;;;;;10.37;100.00;94434.09;5014417;28;20225;-63
2022/11/10 06:55:31;;;;;;;1999.90;999.90;;;;;;;10.42;100.00;94430.84;5014041;28;20183;-59
2022/11/10 06:57:57;;;;;;;1999.90;999.90;;;;;;;10.41;100.00;94435.53;5013752;28;20195;-60
2022/11/10 07:00:23;;;;;;;1999.90;999.90;;;;;;;10.42;100.00;94441.78;5013338;28;20226;-60
2022/11/10 07:03:06;;;;;;;1999.90;999.90;;;;;;;10.39;100.00;94448.06;5013785;28;20210;-60
2022/11/10 07:05:34;;;;;;;1999.90;999.90;;;;;;;10.34;100.00;94462.25;5013741;28;20196;-60
2022/11/10 07:08:15;;;;;;;1999.90;999.90;;;;;;;10.32;100.00;94459.16;5014122;28;20256;-60
2022/11/10 07:10:51;;;;;;;1999.90;999.90;;;;;;;10.27;100.00;94467.84;5014349;28;20176;-62
2022/11/10 07:13:17;;;;;;;1999.90;999.90;;;;;;;10.29;100.00;94481.81;5014493;28;20179;-70
2022/11/10 07:15:42;;;;;;;1999.90;999.90;;;;;;;10.28;100.00;94485.75;5013487;28;20168;-70
2022/11/10 07:18:07;;;;;;;1999.90;999.90;;;;;;;10.26;100.00;94493.59;5013798;28;20175;-70
2022/11/10 07:20:34;;;;;;;1999.90;999.90;;;;;;;10.21;100.00;94500.31;5013620;28;20225;-70
2022/11/10 07:23:01;;;;;;;1999.90;999.90;;;;;;;10.20;100.00;94500.75;5014266;28;20196;-72
2022/11/10 07:25:28;;;;;;;1999.90;999.90;;;;;;;10.19;100.00;94515.59;5013410;28;20210;-70
2022/11/10 07:27:58;;;;;;;1999.90;999.90;;;;;;;10.24;100.00;94513.13;5013634;28;20172;-70
2022/11/10 07:30:25;;;;;;;1999.90;999.90;;;;;;;10.36;100.00;94519.88;5014061;28;20196;-72
2022/11/10 07:33:02;;;;;;;1999.90;999.90;;;;;;;10.47;100.00;94521.19;5013176;28;20543;-60
2022/11/10 07:35:29;;;;;;;1999.90;999.90;;;;;;;10.59;100.00;94517.78;5014098;28;20182;-61
2022/11/10 07:37:56;;;;;;;1999.90;999.90;;;;;;;10.70;100.00;94517.56;5013270;28;20185;-60
2022/11/10 07:40:21;;;;;;;1999.90;999.90;;;;;;;10.74;100.00;94520.97;5013354;28;20274;-60
2022/11/10 07:42:47;;;;;;;1999.90;999.90;;;;;;;10.85;100.00;94529.69;5013422;28;20273;-60
2022/11/10 07:45:12;;;;;;;1999.90;999.90;;;;;;;10.89;100.00;94525.66;5014069;28;20558;-60
2022/11/10 07:47:38;;;;;;;1999.90;999.90;;;;;;;10.95;100.00;94534.13;5013203;28;20181;-59
2022/11/10 07:50:04;;;;;;;1999.90;999.90;;;;;;;10.95;100.00;94539.59;5013369;28;20183;-69
2022/11/10 07:52:29;;;;;;;1999.90;999.90;;;;;;;11.07;100.00;94542.41;5013597;28;20267;-70
2022/11/10 07:54:54;;;;;;;1999.90;999.90;;;;;;;11.17;100.00;94546.09;5013158;28;20276;-70
2022/11/10 07:57:20;;;;;;;1999.90;999.90;;;;;;;11.22;100.00;94559.25;5013402;28;20328;-70
2022/11/10 07:59:45;;;;;;;1999.90;999.90;;;;;;;11.33;100.00;94565.22;5013347;28;20357;-71
2022/11/10 08:02:10;;;;;;;1999.90;999.90;;;;;;;11.38;100.00;94572.91;5013654;28;20257;-70
2022/11/10 08:04:36;;;;;;;1999.90;999.90;;;;;;;11.43;100.00;94586.03;5013791;28;20209;-70
2022/11/10 08:07:01;;;;;;;1999.90;999.90;;;;;;;11.59;100.00;94583.31;5013288;28;20243;-63
2022/11/10 08:09:27;;;;;;;1999.90;999.90;;;;;;;12.08;100.00;94565.63;5014748;28;20179;-61
2022/11/10 08:11:52;;;;;;;1999.90;999.90;;;;;;;13.05;100.00;94540.03;5016641;28;20177;-60
2022/11/10 08:14:17;;;;;;;1999.90;999.90;;;;;;;14.54;100.00;94498.03;5017005;28;20337;-60
2022/11/10 08:16:43;;;;;;;1999.90;999.90;;;;;;;15.55;100.00;94609.56;5017034;28;20184;-60
2022/11/10 08:19:08;;;;;;;1999.90;999.90;;;;;;;16.24;100.00;94847.59;5017881;28;20227;-60
2022/11/10 08:21:33;;;;;;;1999.90;999.90;;;;;;;16.16;100.00;95295.44;5016768;28;20195;-60
2022/11/10 08:23:59;;;;;;;1999.90;999.90;;;;;;;16.81;100.00;95598.38;5017578;28;20229;-61
2022/11/10 08:26:24;;;;;;;1999.90;999.90;;;;;;;16.81;100.00;95896.31;5016728;28;20263;-75
2022/11/10 08:28:49;;;;;;;1999.90;999.90;;;;;;;17.07;100.00;96033.25;5016353;28;20222;-75
2022/11/10 08:31:15;;;;;;;1999.90;999.90;;;;;;;17.71;100.00;96114.22;5017399;28;20226;-74
2022/11/10 08:33:40;;;;;;;1999.90;999.90;;;;;;;18.18;100.00;96181.00;5016461;28;20195;-78
2022/11/10 08:36:06;;;;;;;1999.90;999.90;;;;;;;18.48;100.00;96209.09;5016809;28;20246;-75
2022/11/10 08:38:31;;;;;;;1999.90;999.90;;;;;;;18.53;100.00;96227.13;5016642;28;20179;-79
2022/11/10 08:40:56;;;;;;;1999.90;999.90;;;;;;;18.58;100.00;96243.22;5016449;28;20250;-80
2022/11/10 08:43:22;;;;;;;1999.90;999.90;;;;;;;19.05;100.00;96247.13;5016966;28;20190;-57
2022/11/10 08:45:48;;;;;;;1999.90;999.90;;;;;;;18.99;100.00;96257.16;5016864;28;20202;-56
2022/11/10 08:48:15;;;;;;;1999.90;999.90;;;;;;;18.75;100.00;96273.22;5016056;28;20176;-52
2022/11/10 08:50:41;;;;;;;1999.90;999.90;;;;;;;18.69;100.00;96263.88;5015978;28;20221;-53
2022/11/10 08:53:12;;;;;;;1999.90;999.90;;;;;;;18.70;100.00;96284.03;5016206;28;20187;-52
2022/11/10 08:55:38;;;;;;;1999.90;999.90;;;;;;;18.02;100.00;96291.56;5015585;28;20214;-53
2022/11/10 08:58:05;;;;;;;1999.90;999.90;;;;;;;17.74;100.00;96286.66;5015621;28;20182;-55
2022/11/10 09:00:31;;;;;;;1999.90;999.90;;;;;;;17.58;100.00;96294.88;5016085;28;20223;-53
2022/11/10 09:03:04;;;;;;;1999.90;999.90;;;;;;;17.01;100.00;96306.22;5016386;28;20214;-59
2022/11/10 09:05:29;;;;;;;1999.90;999.90;;;;;;;16.76;100.00;96294.88;5016361;28;20191;-59
2022/11/10 09:07:55;;;;;;;1999.90;999.90;;;;;;;16.39;100.00;96290.34;5015885;28;20180;-59
2022/11/10 09:10:21;;;;;;;1999.90;999.90;;;;;;;16.42;100.00;96293.50;5015923;28;20171;-58
2022/11/10 09:12:46;;;;;;;1999.90;999.90;;;;;;;16.44;100.00;96298.16;5016031;28;20183;-57
2022/11/10 09:15:12;;;;;;;1999.90;999.90;;;;;;;17.04;100.00;96299.09;5015656;28;20314;-58
2022/11/10 09:17:39;;;;;;;1999.90;999.90;;;;;;;17.06;100.00;96313.25;5015826;28;20179;-56
2022/11/10 09:20:06;;;;;;;1999.90;999.90;;;;;;;18.38;100.00;96315.25;5015602;28;20241;-72
2022/11/10 09:22:33;;;;;;;1999.90;999.90;;;;;;;18.43;100.00;96325.03;5015532;28;20207;-61
2022/11/10 09:24:58;;;;;;;1999.90;999.90;;;;;;;17.15;100.00;96335.56;5016164;28;20176;-60
2022/11/10 09:27:23;;;;;;;1999.90;999.90;;;;;;;16.56;100.00;96334.59;5015611;28;20760;-60
2022/11/10 09:29:49;;;;;;;1999.90;999.90;;;;;;;16.53;100.00;96346.50;5015586;28;20175;-60
2022/11/10 09:32:14;;;;;;;1999.90;999.90;;;;;;;16.35;100.00;96347.50;5015508;28;20203;-60
2022/11/10 09:34:39;;;;;;;1999.90;999.90;;;;;;;16.11;100.00;96348.63;5015617;28;20195;-60
2022/11/10 09:37:05;;;;;;;1999.90;999.90;;;;;;;15.66;100.00;96350.03;5015240;28;20246;-51
2022/11/10 09:39:30;;;;;;;1999.90;999.90;;;;;;;15.17;100.00;96350.59;5015323;28;20173;-53
2022/11/10 09:41:55;;;;;;;1999.90;999.90;;;;;;;14.93;100.00;96351.59;5015698;28;20295;-56
2022/11/10 09:44:25;;;;;;;1999.90;999.90;;;;;;;14.81;100.00;96354.06;5015605;28;20245;-55
2022/11/10 09:46:57;;;;;;;1999.90;999.90;;;;;;;14.66;100.00;96345.19;5015100;28;20273;-56
2022/11/10 09:49:38;;;;;;;1999.90;999.90;;;;;;;14.47;100.00;96345.75;5015589;28;20207;-55
2022/11/10 09:52:04;;;;;;;1999.90;999.90;;;;;;;14.43;100.00;96339.50;5014974;28;20582;-55
2022/11/10 09:54:53;;;;;;;1999.90;999.90;;;;;;;14.22;100.00;96334.16;5014507;28;20657;-53
2022/11/10 09:57:23;;;;;;;1999.90;999.90;;;;;;;14.28;100.00;96329.75;5015696;28;20254;-53
2022/11/10 09:59:48;;;;;;;1999.90;999.90;;;;;;;14.10;100.00;96329.09;5014530;28;20219;-51
2022/11/10 10:02:38;;;;;;;1999.90;999.90;;;;;;;14.28;100.00;96327.00;5014743;28;20265;-50
2022/11/10 10:05:23;;;;;;;1999.90;999.90;;;;;;;14.17;100.00;96342.75;5014726;28;20287;-51
2022/11/10 10:08:12;;;;;;;1999.90;999.90;;;;;;;14.06;100.00;96344.78;5015273;28;20590;-48
2022/11/10 10:10:48;;;;;;;1999.90;999.90;;;;;;;14.09;100.00;96341.25;5015453;28;20174;-48
2022/11/10 10:13:38;;;;;;;1999.90;999.90;;;;;;;14.36;100.00;96336.78;5015066;28;20179;-55
2022/11/10 10:16:07;;;;;;;1999.90;999.90;;;;;;;14.53;100.00;96355.09;5015199;28;20190;-69
2022/11/10 10:18:59;;;;;;;1999.90;999.90;;;;;;;14.63;100.00;96364.44;5015135;28;20179;-60
2022/11/10 10:21:34;;;;;;;1999.90;999.90;;;;;;;15.08;100.00;96364.03;5014041;28;20203;-61
2022/11/10 10:24:01;;;;;;;1999.90;999.90;;;;;;;15.92;100.00;96374.09;5014919;28;20170;-60
2022/11/10 10:26:30;;;;;;;1999.90;999.90;;;;;;;16.14;100.00;96389.16;5014269;28;20182;-61
2022/11/10 10:29:00;;;;;;;1999.90;999.90;;;;;;;16.70;100.00;96406.91;5014414;28;20179;-61
2022/11/10 10:31:41;;;;;;;1999.90;999.90;;;;;;;16.96;100.00;96399.75;5014771;28;20178;-61
2022/11/10 10:34:18;;;;;;;1999.90;999.90;;;;;;;16.46;100.00;96412.78;5015223;28;20179;-54
2022/11/10 10:36:44;;;;;;;1999.90;999.90;;;;;;;16.20;100.00;96404.06;5014108;28;20280;-62
2022/11/10 10:39:18;;;;;;;1999.90;999.90;;;;;;;15.71;100.00;96396.44;5014791;28;20261;-62
2022/11/10 10:41:45;;;;;;;1999.90;999.90;;;;;;;15.60;100.00;96384.75;5014157;28;20203;-63
2022/11/10 10:44:16;;;;;;;1999.90;999.90;;;;;;;15.84;100.00;96386.41;5014754;28;20171;-63
2022/11/10 10:47:01;;;;;;;1999.90;999.90;;;;;;;15.83;100.00;96393.13;5014915;28;20171;-61
2022/11/10 10:49:29;;;;;;;1999.90;999.90;;;;;;;15.56;100.00;96400.50;5014940;28;20556;-62
2022/11/10 10:52:16;;;;;;;1999.90;999.90;;;;;;;15.29;100.00;96402.34;5014035;28;20202;-61
2022/11/10 10:54:41;;;;;;;1999.90;999.90;;;;;;;15.16;100.00;96404.03;5013798;28;20206;-50
2022/11/10 10:57:28;;;;;;;1999.90;999.90;;;;;;;14.98;100.00;96410.91;5014700;28;20209;-52
2022/11/10 11:00:14;;;;;;;1999.90;999.90;;;;;;;15.02;100.00;96409.69;5014101;28;20306;-53
2022/11/10 11:02:39;;;;;;;1999.90;999.90;;;;;;;15.02;100.00;96400.66;5014292;28;20205;-48